LVCPN SAAC-SABE
Flight info
| Callsign | LVCPN |
|---|---|
| Flight time | N/A |
| Altitude | 24000 |
| Route | GUA W11 PAGON PAGON8Q |
| Aircraft | C750/M-SBDE3FGHRWXY/S |
Departure
| Time | 2026-04-19 22:49 |
|---|---|
| Airport | Comodoro Pierrestegui Airport (SAAC) |
Arrival
| Time | N/A |
|---|---|
| Airport | Aeroparque Jorge Newbery (SABE) |
| Time | Latitude | Longitude | Altitude | Speed | Heading |
|---|---|---|---|---|---|
| 2026-04-19 22:38 | -31.30285 | -58.00129 | 117 ft | 0 kts | 220° |
| 2026-04-19 22:45 | -31.30286 | -58.00129 | 117 ft | 0 kts | 220° |
| 2026-04-19 22:45 | -31.30293 | -58.00121 | 116 ft | 4 kts | 120° |
| 2026-04-19 22:45 | -31.30289 | -58.00031 | 116 ft | 19 kts | 53° |
| 2026-04-19 22:46 | -31.30114 | -57.99920 | 113 ft | 38 kts | 27° |
| 2026-04-19 22:46 | -31.29872 | -57.99773 | 105 ft | 39 kts | 27° |
| 2026-04-19 22:46 | -31.29630 | -57.99627 | 98 ft | 39 kts | 27° |
| 2026-04-19 22:46 | -31.29400 | -57.99483 | 92 ft | 34 kts | 28° |
| 2026-04-19 22:47 | -31.29192 | -57.99355 | 86 ft | 25 kts | 28° |
| 2026-04-19 22:47 | -31.29112 | -57.99305 | 84 ft | 0 kts | 27° |
| 2026-04-19 22:47 | -31.29105 | -57.99300 | 83 ft | 2 kts | 28° |
| 2026-04-19 22:47 | -31.29087 | -57.99293 | 87 ft | 3 kts | 6° |
| 2026-04-19 22:48 | -31.29075 | -57.99284 | 85 ft | 1 kts | 66° |
| 2026-04-19 22:48 | -31.29079 | -57.99279 | 84 ft | 0 kts | 141° |
| 2026-04-19 22:48 | -31.29083 | -57.99282 | 83 ft | 2 kts | 200° |
| 2026-04-19 22:48 | -31.29089 | -57.99286 | 83 ft | 0 kts | 207° |
| 2026-04-19 22:49 | -31.29191 | -57.99348 | 89 ft | 63 kts | 207° |
| 2026-04-19 22:49 | -31.29920 | -57.99798 | 183 ft | 150 kts | 208° |
| 2026-04-19 22:49 | -31.30918 | -58.00436 | 651 ft | 175 kts | 206° |
| 2026-04-19 22:49 | -31.32124 | -58.00941 | 1247 ft | 193 kts | 195° |
| 2026-04-19 22:50 | -31.33472 | -58.01431 | 1853 ft | 211 kts | 195° |
| 2026-04-19 22:50 | -31.34939 | -58.01905 | 2530 ft | 225 kts | 193° |
| 2026-04-19 22:50 | -31.36511 | -58.02367 | 3180 ft | 242 kts | 192° |
| 2026-04-19 22:50 | -31.38214 | -58.02869 | 3729 ft | 265 kts | 195° |
| 2026-04-19 22:51 | -31.40013 | -58.03555 | 4551 ft | 279 kts | 199° |
| 2026-04-19 22:51 | -31.43760 | -58.04917 | 6746 ft | 286 kts | 197° |
| 2026-04-19 22:51 | -31.45675 | -58.05571 | 7882 ft | 287 kts | 198° |
| 2026-04-19 22:52 | -31.47586 | -58.06250 | 9118 ft | 287 kts | 198° |
| 2026-04-19 22:52 | -31.49490 | -58.06929 | 10203 ft | 291 kts | 199° |
| 2026-04-19 22:52 | -31.51494 | -58.07640 | 10695 ft | 314 kts | 199° |
| 2026-04-19 22:52 | -31.53681 | -58.08414 | 10934 ft | 342 kts | 199° |
| 2026-04-19 22:53 | -31.56034 | -58.09245 | 11370 ft | 358 kts | 199° |
| 2026-04-19 22:53 | -31.58412 | -58.10082 | 12361 ft | 356 kts | 199° |
| 2026-04-19 22:53 | -31.60802 | -58.10928 | 13183 ft | 361 kts | 199° |
| 2026-04-19 22:53 | -31.63216 | -58.11787 | 14007 ft | 363 kts | 200° |
| 2026-04-19 22:54 | -31.65647 | -58.12650 | 14737 ft | 367 kts | 200° |
| 2026-04-19 22:54 | -31.68101 | -58.13520 | 15457 ft | 370 kts | 200° |
| 2026-04-19 22:54 | -31.70580 | -58.14399 | 16207 ft | 373 kts | 200° |
| 2026-04-19 22:54 | -31.73086 | -58.15290 | 16995 ft | 376 kts | 201° |
| 2026-04-19 22:55 | -31.75574 | -58.16175 | 17774 ft | 380 kts | 201° |
| 2026-04-19 22:55 | -31.78121 | -58.17081 | 18529 ft | 384 kts | 201° |
| 2026-04-19 22:55 | -31.80687 | -58.17994 | 19267 ft | 387 kts | 201° |
| 2026-04-19 22:55 | -31.83276 | -58.18915 | 20038 ft | 390 kts | 201° |
| 2026-04-19 22:56 | -31.85894 | -58.19850 | 20802 ft | 393 kts | 201° |
| 2026-04-19 22:56 | -31.88530 | -58.20790 | 21540 ft | 398 kts | 202° |
| 2026-04-19 22:56 | -31.91190 | -58.21739 | 22306 ft | 401 kts | 202° |
| 2026-04-19 22:56 | -31.93875 | -58.22697 | 23073 ft | 405 kts | 202° |
| 2026-04-19 22:57 | -31.96586 | -58.23665 | 23766 ft | 408 kts | 202° |
| 2026-04-19 22:57 | -31.99342 | -58.24652 | 24005 ft | 423 kts | 202° |
| 2026-04-19 22:57 | -32.02192 | -58.25679 | 24003 ft | 443 kts | 202° |
| 2026-04-19 22:57 | -32.05200 | -58.26755 | 24018 ft | 461 kts | 201° |
| 2026-04-19 22:58 | -32.08325 | -58.27867 | 24018 ft | 476 kts | 201° |
| 2026-04-19 22:58 | -32.11507 | -58.29003 | 24016 ft | 479 kts | 201° |
| 2026-04-19 22:58 | -32.14720 | -58.30155 | 24016 ft | 482 kts | 201° |
| 2026-04-19 22:58 | -32.17939 | -58.31312 | 24019 ft | 483 kts | 201° |
| 2026-04-19 22:59 | -32.21146 | -58.32462 | 24021 ft | 478 kts | 201° |
| 2026-04-19 22:59 | -32.24328 | -58.33604 | 24023 ft | 478 kts | 201° |
| 2026-04-19 22:59 | -32.27481 | -58.34742 | 24023 ft | 479 kts | 201° |
| 2026-04-19 22:59 | -32.30671 | -58.35891 | 24023 ft | 478 kts | 201° |
| 2026-04-19 23:00 | -32.33855 | -58.37036 | 24025 ft | 478 kts | 201° |
| 2026-04-19 23:00 | -32.37038 | -58.38183 | 24023 ft | 478 kts | 201° |
| 2026-04-19 23:00 | -32.40227 | -58.39335 | 24024 ft | 478 kts | 201° |
| 2026-04-19 23:00 | -32.43403 | -58.40481 | 24026 ft | 478 kts | 201° |
| 2026-04-19 23:01 | -32.46590 | -58.41632 | 24023 ft | 478 kts | 201° |
| 2026-04-19 23:01 | -32.49770 | -58.42782 | 24024 ft | 478 kts | 201° |
| 2026-04-19 23:01 | -32.51877 | -58.43545 | 24023 ft | 478 kts | 201° |
| 2026-04-19 23:01 | -32.55062 | -58.44698 | 24019 ft | 477 kts | 201° |
| 2026-04-19 23:02 | -32.59265 | -58.46220 | 24020 ft | 477 kts | 201° |
| 2026-04-19 23:02 | -32.61410 | -58.46998 | 24019 ft | 477 kts | 201° |
| 2026-04-19 23:02 | -32.65616 | -58.48524 | 24023 ft | 477 kts | 201° |
| 2026-04-19 23:02 | -32.67760 | -58.49303 | 24019 ft | 477 kts | 201° |
| 2026-04-19 23:03 | -32.71957 | -58.50829 | 24023 ft | 477 kts | 201° |
| 2026-04-19 23:03 | -32.74059 | -58.51593 | 24023 ft | 477 kts | 201° |
| 2026-04-19 23:03 | -32.77229 | -58.52746 | 24023 ft | 477 kts | 201° |
| 2026-04-19 23:03 | -32.80397 | -58.53899 | 24021 ft | 472 kts | 201° |
| 2026-04-19 23:04 | -32.83540 | -58.55043 | 24022 ft | 470 kts | 202° |
| 2026-04-19 23:04 | -32.87693 | -58.56561 | 24023 ft | 473 kts | 202° |
| 2026-04-19 23:04 | -32.89829 | -58.57343 | 24025 ft | 475 kts | 202° |
| 2026-04-19 23:04 | -32.92992 | -58.58497 | 24023 ft | 476 kts | 201° |
| 2026-04-19 23:05 | -32.96162 | -58.59654 | 24026 ft | 477 kts | 201° |
| 2026-04-19 23:05 | -32.99343 | -58.60800 | 24027 ft | 477 kts | 201° |
| 2026-04-19 23:05 | -33.02577 | -58.61583 | 24003 ft | 484 kts | 193° |
| 2026-04-19 23:05 | -33.05935 | -58.61985 | 24013 ft | 486 kts | 190° |
| 2026-04-19 23:06 | -33.09308 | -58.62363 | 24018 ft | 486 kts | 191° |
| 2026-04-19 23:06 | -33.12672 | -58.62769 | 24025 ft | 486 kts | 191° |
| 2026-04-19 23:06 | -33.16034 | -58.63169 | 24027 ft | 486 kts | 191° |
| 2026-04-19 23:06 | -33.19420 | -58.63553 | 24027 ft | 489 kts | 190° |
| 2026-04-19 23:07 | -33.22808 | -58.63938 | 24027 ft | 491 kts | 191° |
| 2026-04-19 23:07 | -33.26213 | -58.64338 | 24027 ft | 492 kts | 191° |
| 2026-04-19 23:07 | -33.29630 | -58.64740 | 24028 ft | 492 kts | 191° |
| 2026-04-19 23:07 | -33.33040 | -58.65133 | 23922 ft | 484 kts | 190° |
| 2026-04-19 23:08 | -33.36296 | -58.65496 | 23294 ft | 455 kts | 191° |
| 2026-04-19 23:08 | -33.39337 | -58.65846 | 22712 ft | 424 kts | 191° |
| 2026-04-19 23:08 | -33.42160 | -58.66184 | 22197 ft | 403 kts | 191° |
| 2026-04-19 23:08 | -33.44926 | -58.66519 | 21680 ft | 397 kts | 191° |
| 2026-04-19 23:09 | -33.47695 | -58.66848 | 21160 ft | 401 kts | 191° |
| 2026-04-19 23:09 | -33.50476 | -58.67167 | 20632 ft | 402 kts | 191° |
| 2026-04-19 23:09 | -33.53258 | -58.67487 | 20106 ft | 400 kts | 191° |
| 2026-04-19 23:09 | -33.56023 | -58.67812 | 19583 ft | 398 kts | 191° |
| 2026-04-19 23:10 | -33.58776 | -58.68137 | 19061 ft | 396 kts | 191° |
| 2026-04-19 23:10 | -33.61513 | -58.68456 | 18548 ft | 394 kts | 191° |
| 2026-04-19 23:10 | -33.64231 | -58.68773 | 18001 ft | 391 kts | 191° |
| 2026-04-19 23:10 | -33.66931 | -58.69090 | 17488 ft | 388 kts | 191° |
| 2026-04-19 23:11 | -33.69614 | -58.69406 | 16978 ft | 386 kts | 190° |
| 2026-04-19 23:11 | -33.72278 | -58.69718 | 16475 ft | 383 kts | 190° |
| 2026-04-19 23:11 | -33.74925 | -58.70029 | 15974 ft | 381 kts | 190° |
| 2026-04-19 23:11 | -33.77557 | -58.70339 | 15476 ft | 379 kts | 189° |
| 2026-04-19 23:12 | -33.80139 | -58.70643 | 14984 ft | 376 kts | 189° |